Time;durP1;ratioP1;P1;durP2;ratioP2;P2;SDS_P1;SDS_P2;PMS_P1;PMS_P2;Temp;Humidity;BMP_temperature;BMP_pressure;BME280_temperature;BME280_humidity;BME280_pressure;Samples;Min_cycle;Max_cycle;Signal;HPM_P1;HPM_P2
2022/03/19 00:00:25;;;;;;;18.67;3.45;;;5.60;99.90;;;;;;4988390;28;20054;-75
2022/03/19 00:02:52;;;;;;;22.35;3.22;;;5.60;99.90;;;;;;4970717;28;20053;-76
2022/03/19 00:05:22;;;;;;;20.10;2.83;;;5.60;99.90;;;;;;4955962;28;20107;-75
2022/03/19 00:07:51;;;;;;;17.50;2.60;;;5.60;99.90;;;;;;4939926;28;20046;-76
2022/03/19 00:10:19;;;;;;;20.13;3.17;;;5.60;99.90;;;;;;4954512;28;20498;-76
2022/03/19 00:12:45;;;;;;;21.65;3.50;;;5.60;99.90;;;;;;4971324;28;20058;-77
2022/03/19 00:15:11;;;;;;;17.65;3.30;;;5.60;99.90;;;;;;4971072;28;20144;-76
2022/03/19 00:17:38;;;;;;;18.73;3.22;;;5.60;99.90;;;;;;4970040;28;20093;-77
2022/03/19 00:20:08;;;;;;;19.50;3.72;;;5.60;99.90;;;;;;4971471;28;20088;-77
2022/03/19 00:22:34;;;;;;;14.10;2.88;;;5.50;99.90;;;;;;4971122;28;20102;-77
2022/03/19 00:25:00;;;;;;;22.13;2.97;;;5.60;99.90;;;;;;4955148;28;20047;-76
2022/03/19 00:27:34;;;;;;;17.20;3.28;;;5.60;99.90;;;;;;4954835;28;20845;-77
2022/03/19 00:30:01;;;;;;;20.23;3.53;;;5.60;99.90;;;;;;4971122;28;20532;-76
2022/03/19 00:32:27;;;;;;;19.52;4.78;;;5.60;99.90;;;;;;4954919;28;20086;-76
2022/03/19 00:34:53;;;;;;;25.55;4.38;;;5.60;99.90;;;;;;4970862;28;20105;-76
2022/03/19 00:37:19;;;;;;;19.83;2.90;;;5.60;99.90;;;;;;4954764;28;20047;-76
2022/03/19 00:39:45;;;;;;;19.08;3.35;;;5.60;99.90;;;;;;4972492;28;20161;-77
2022/03/19 00:42:10;;;;;;;27.60;3.80;;;5.60;99.90;;;;;;4976703;28;20049;-77
2022/03/19 00:44:36;;;;;;;22.58;2.97;;;5.60;99.90;;;;;;4960178;28;20058;-76
2022/03/19 00:47:02;;;;;;;14.80;3.25;;;5.60;99.90;;;;;;4975873;28;20122;-76
2022/03/19 00:49:28;;;;;;;19.38;3.33;;;5.60;99.90;;;;;;4973963;28;20414;-76
2022/03/19 00:51:54;;;;;;;30.10;4.60;;;5.60;99.90;;;;;;4957236;28;20062;-76
2022/03/19 00:54:22;;;;;;;17.83;2.80;;;5.50;99.90;;;;;;4973145;28;20050;-77
2022/03/19 00:56:48;;;;;;;18.35;3.40;;;5.50;99.90;;;;;;4957032;28;20057;-76
2022/03/19 00:59:14;;;;;;;16.20;3.47;;;5.50;99.90;;;;;;4973172;28;20059;-76
2022/03/19 01:01:43;;;;;;;20.63;3.28;;;5.50;99.90;;;;;;4959748;28;20043;-76
2022/03/19 01:04:30;;;;;;;18.15;3.28;;;5.50;99.90;;;;;;4953917;29;20494;-75
2022/03/19 01:06:58;;;;;;;25.38;3.42;;;5.40;99.90;;;;;;4951075;29;20059;-75
2022/03/19 01:09:27;;;;;;;27.02;4.10;;;5.40;99.90;;;;;;4938211;29;20067;-76
2022/03/19 01:11:56;;;;;;;27.65;3.28;;;5.40;99.90;;;;;;4953797;29;20047;-75
2022/03/19 01:14:22;;;;;;;24.08;3.85;;;5.30;99.90;;;;;;4953531;29;20154;-75
2022/03/19 01:16:52;;;;;;;20.15;3.30;;;5.30;99.90;;;;;;4953582;29;20523;-75
2022/03/19 01:19:52;;;;;;;22.60;3.78;;;5.30;99.90;;;;;;4921733;29;20046;-75
2022/03/19 01:22:03;;;;;;;15.00;2.92;;;5.30;99.90;;;;;;4937476;29;20055;-76
2022/03/19 01:24:30;;;;;;;17.80;2.97;;;5.20;99.90;;;;;;4953094;29;20055;-78
2022/03/19 01:26:56;;;;;;;22.77;2.78;;;5.20;99.90;;;;;;4922400;29;20098;-77
2022/03/19 01:29:22;;;;;;;18.48;3.38;;;5.10;99.90;;;;;;4939119;28;20129;-76
2022/03/19 01:31:53;;;;;;;20.15;3.55;;;5.20;99.90;;;;;;4941976;28;20047;-76
2022/03/19 01:34:21;;;;;;;17.27;3.55;;;5.20;99.90;;;;;;4974179;28;20062;-76
2022/03/19 01:36:49;;;;;;;26.00;4.68;;;5.10;99.90;;;;;;4943379;28;20137;-77
2022/03/19 01:39:21;;;;;;;31.80;4.45;;;5.10;99.90;;;;;;4975280;28;20051;-77
2022/03/19 01:41:48;;;;;;;29.40;3.22;;;5.10;99.90;;;;;;4942484;28;20490;-77
2022/03/19 01:44:31;;;;;;;22.42;4.15;;;5.10;99.90;;;;;;4973632;28;20054;-76
2022/03/19 01:47:10;;;;;;;24.23;4.30;;;5.10;99.90;;;;;;4930409;28;20633;-76
2022/03/19 01:49:40;;;;;;;21.83;4.25;;;5.10;99.90;;;;;;4973449;28;20534;-77
2022/03/19 01:52:06;;;;;;;27.05;4.07;;;5.10;99.90;;;;;;4972773;28;20425;-77
2022/03/19 01:54:34;;;;;;;28.23;3.90;;;5.10;99.90;;;;;;4972740;28;20156;-77
2022/03/19 01:57:02;;;;;;;23.73;4.32;;;5.10;99.90;;;;;;4973259;28;20186;-76
2022/03/19 01:59:36;;;;;;;25.75;4.68;;;5.10;99.90;;;;;;4941097;28;20082;-76
2022/03/19 02:02:31;;;;;;;27.25;5.82;;;5.10;99.90;;;;;;4958148;28;20458;-76
2022/03/19 02:04:59;;;;;;;24.00;4.18;;;5.10;99.90;;;;;;4933322;29;20064;-76
2022/03/19 02:07:25;;;;;;;29.23;4.70;;;5.10;99.90;;;;;;4917518;29;20459;-76
2022/03/19 02:09:51;;;;;;;27.58;3.67;;;5.10;99.90;;;;;;4932768;29;20114;-76
2022/03/19 02:12:17;;;;;;;22.77;4.00;;;5.10;99.90;;;;;;4917523;29;20068;-76
2022/03/19 02:14:48;;;;;;;21.52;5.50;;;5.10;99.90;;;;;;4917180;29;20577;-77
2022/03/19 02:17:15;;;;;;;31.98;4.53;;;5.10;99.90;;;;;;4917398;29;20058;-76
2022/03/19 02:19:48;;;;;;;18.73;3.78;;;5.10;99.90;;;;;;4917582;29;20052;-76
2022/03/19 02:22:16;;;;;;;25.48;4.07;;;5.10;99.90;;;;;;4917118;29;20051;-76
2022/03/19 02:27:26;;;;;;;22.73;4.10;;;5.00;99.90;;;;;;4917683;29;20499;-76
2022/03/19 02:29:52;;;;;;;27.40;3.95;;;5.00;99.90;;;;;;4917929;29;20229;-78
2022/03/19 02:32:27;;;;;;;25.85;4.35;;;5.00;99.90;;;;;;4918415;29;20187;-77
2022/03/19 02:34:53;;;;;;;22.88;4.93;;;5.00;99.90;;;;;;4918510;29;20118;-76
2022/03/19 02:37:24;;;;;;;19.33;3.55;;;5.00;99.90;;;;;;4952554;29;20134;-76
2022/03/19 02:39:58;;;;;;;27.10;5.50;;;5.00;99.90;;;;;;4937372;29;20074;-76
2022/03/19 02:42:24;;;;;;;22.42;4.20;;;5.00;99.90;;;;;;4921810;29;20454;-76
2022/03/19 02:44:53;;;;;;;19.73;5.10;;;5.00;99.90;;;;;;4937327;29;20569;-76
2022/03/19 02:47:24;;;;;;;21.60;4.10;;;5.00;99.90;;;;;;4952381;28;20055;-76
2022/03/19 02:49:51;;;;;;;31.42;4.82;;;5.00;99.90;;;;;;4953103;29;20133;-76
2022/03/19 02:52:16;;;;;;;20.63;4.60;;;5.00;99.90;;;;;;4953015;29;20498;-76
2022/03/19 02:54:42;;;;;;;26.30;5.05;;;5.00;99.90;;;;;;4953073;28;20418;-77
2022/03/19 02:57:08;;;;;;;24.40;5.88;;;5.00;99.90;;;;;;4936729;29;20047;-76
2022/03/19 02:59:34;;;;;;;27.90;4.72;;;5.00;99.90;;;;;;4953116;29;20043;-76
2022/03/19 03:02:05;;;;;;;19.00;4.05;;;5.00;99.90;;;;;;4968256;28;20410;-76
2022/03/19 03:04:31;;;;;;;25.33;5.13;;;5.00;99.90;;;;;;4970647;28;20066;-76
2022/03/19 03:07:01;;;;;;;25.00;4.40;;;5.00;99.90;;;;;;4940053;28;20143;-75
2022/03/19 03:09:28;;;;;;;19.27;4.55;;;5.00;99.90;;;;;;4971893;28;20152;-75
2022/03/19 03:11:59;;;;;;;21.15;4.68;;;5.00;99.90;;;;;;4971033;28;20053;-76
2022/03/19 03:14:26;;;;;;;20.20;4.90;;;5.00;99.90;;;;;;4971684;28;20149;-76
2022/03/19 03:16:53;;;;;;;25.42;4.68;;;5.00;99.90;;;;;;4955580;28;20051;-76
2022/03/19 03:19:20;;;;;;;24.45;4.63;;;4.90;99.90;;;;;;4939692;28;20406;-76
2022/03/19 03:21:47;;;;;;;26.67;5.07;;;4.90;99.90;;;;;;4955376;28;20051;-77
2022/03/19 03:24:14;;;;;;;18.75;5.32;;;4.90;99.90;;;;;;4955583;28;20109;-77
2022/03/19 03:26:41;;;;;;;23.45;4.85;;;4.90;99.90;;;;;;4971949;28;20094;-76
2022/03/19 03:29:25;;;;;;;21.05;5.10;;;4.80;99.90;;;;;;4973277;28;20101;-76
2022/03/19 03:32:11;;;;;;;26.05;5.82;;;4.80;99.90;;;;;;4958759;28;20121;-76
2022/03/19 03:34:41;;;;;;;20.63;4.60;;;4.80;99.90;;;;;;4971834;28;20055;-76
2022/03/19 03:37:07;;;;;;;21.67;4.75;;;4.80;99.90;;;;;;4955954;28;20047;-76
2022/03/19 03:39:33;;;;;;;22.65;5.25;;;4.80;99.90;;;;;;4973381;28;20183;-77
2022/03/19 03:41:59;;;;;;;24.40;5.47;;;4.70;99.90;;;;;;4974874;28;20080;-77
2022/03/19 03:44:25;;;;;;;27.33;6.10;;;4.70;99.90;;;;;;4955563;28;20129;-77
2022/03/19 03:46:53;;;;;;;22.48;6.43;;;4.60;99.90;;;;;;4979380;28;20137;-77
2022/03/19 03:49:20;;;;;;;20.52;5.15;;;4.60;99.90;;;;;;4991117;28;20475;-77
2022/03/19 03:51:46;;;;;;;23.08;5.47;;;4.60;99.90;;;;;;4991387;28;20066;-76
2022/03/19 03:54:12;;;;;;;17.20;5.70;;;4.50;99.90;;;;;;4990982;28;20437;-76
2022/03/19 03:56:57;;;;;;;22.25;5.90;;;4.50;99.90;;;;;;4991381;28;20057;-76
2022/03/19 03:59:23;;;;;;;23.38;5.57;;;4.40;99.90;;;;;;4958749;28;20050;-76
2022/03/19 04:01:52;;;;;;;24.90;5.32;;;4.40;99.90;;;;;;4960154;28;20450;-76
2022/03/19 04:04:17;;;;;;;20.42;4.55;;;4.30;99.90;;;;;;4955633;28;20055;-76
2022/03/19 04:07:02;;;;;;;23.80;6.07;;;4.30;99.90;;;;;;4957957;28;20054;-76
2022/03/19 04:09:29;;;;;;;21.92;5.25;;;4.30;99.90;;;;;;4970833;28;20133;-76
2022/03/19 04:11:57;;;;;;;23.20;5.97;;;4.20;99.90;;;;;;4916281;29;20062;-77
2022/03/19 04:14:23;;;;;;;23.08;5.70;;;4.20;99.90;;;;;;4916331;29;20047;-77
2022/03/19 04:16:49;;;;;;;21.65;5.88;;;4.10;99.90;;;;;;4887338;29;20055;-77
2022/03/19 04:19:18;;;;;;;22.38;5.68;;;4.00;99.90;;;;;;4935589;29;20066;-77
2022/03/19 04:21:47;;;;;;;23.27;5.13;;;4.00;99.90;;;;;;4888769;29;20451;-78
2022/03/19 04:24:14;;;;;;;23.20;6.13;;;4.00;99.90;;;;;;4903607;29;20435;-77
2022/03/19 04:26:42;;;;;;;20.20;6.47;;;3.90;99.90;;;;;;4935317;29;20063;-77
2022/03/19 04:29:08;;;;;;;17.40;6.00;;;3.90;99.90;;;;;;4888629;29;20058;-77
2022/03/19 04:31:41;;;;;;;19.52;6.25;;;3.80;99.90;;;;;;4919501;29;20051;-78
2022/03/19 04:34:07;;;;;;;27.23;8.23;;;3.80;99.90;;;;;;4888206;29;20044;-77
2022/03/19 04:36:37;;;;;;;21.42;6.50;;;3.70;99.90;;;;;;4920416;29;20119;-77
2022/03/19 04:39:05;;;;;;;27.13;6.75;;;3.70;99.90;;;;;;4935722;29;20056;-77
2022/03/19 04:41:37;;;;;;;23.05;6.60;;;3.70;99.90;;;;;;4936180;29;20044;-77
2022/03/19 04:44:07;;;;;;;24.02;7.82;;;3.60;99.90;;;;;;4905617;29;20062;-79
2022/03/19 04:46:34;;;;;;;23.95;7.32;;;3.60;99.90;;;;;;4904127;29;20129;-75
2022/03/19 04:49:12;;;;;;;31.83;8.38;;;3.60;99.90;;;;;;4921159;29;20107;-76
2022/03/19 04:51:56;;;;;;;26.17;8.07;;;3.50;99.90;;;;;;4908283;29;20434;-76
2022/03/19 04:54:22;;;;;;;24.60;8.15;;;3.50;99.90;;;;;;4902966;29;20047;-76
2022/03/19 04:56:51;;;;;;;26.73;9.35;;;3.50;99.90;;;;;;4934855;29;20048;-76
2022/03/19 04:59:17;;;;;;;31.27;10.73;;;3.40;99.90;;;;;;4902893;29;20511;-77
2022/03/19 05:01:43;;;;;;;25.58;9.20;;;3.50;99.90;;;;;;4931718;29;20047;-75
2022/03/19 05:04:09;;;;;;;29.63;10.77;;;3.50;99.90;;;;;;4937928;29;20134;-76
2022/03/19 05:06:34;;;;;;;28.65;10.48;;;3.50;99.90;;;;;;4937465;29;20051;-76
2022/03/19 05:11:48;;;;;;;33.10;10.40;;;3.40;99.90;;;;;;4918573;29;20051;-76
2022/03/19 05:14:19;;;;;;;24.27;9.98;;;3.40;99.90;;;;;;4940054;28;20054;-76
2022/03/19 05:16:46;;;;;;;28.17;10.63;;;3.40;99.90;;;;;;4957545;28;20062;-76
2022/03/19 05:19:12;;;;;;;27.63;11.15;;;3.40;99.90;;;;;;4974081;28;20109;-77
2022/03/19 05:21:42;;;;;;;34.58;10.63;;;3.40;99.90;;;;;;4974244;28;20051;-77
2022/03/19 05:24:08;;;;;;;35.55;10.43;;;3.40;99.90;;;;;;4974107;28;20085;-77
2022/03/19 05:26:36;;;;;;;30.17;9.77;;;3.40;99.90;;;;;;4957488;28;20051;-77
2022/03/19 05:29:04;;;;;;;30.02;8.70;;;3.40;99.90;;;;;;4958046;28;20063;-76
2022/03/19 05:31:33;;;;;;;24.45;9.82;;;3.30;99.90;;;;;;4958637;28;20055;-77
2022/03/19 05:36:45;;;;;;;24.85;8.82;;;3.30;99.90;;;;;;4960216;28;20080;-77
2022/03/19 05:39:13;;;;;;;23.40;9.10;;;3.30;99.90;;;;;;4973931;28;20150;-76
2022/03/19 05:41:41;;;;;;;18.10;9.07;;;3.30;99.90;;;;;;4958366;28;20074;-77
2022/03/19 05:44:09;;;;;;;24.67;9.98;;;3.20;99.90;;;;;;4973618;28;20494;-76
2022/03/19 05:46:53;;;;;;;24.40;8.98;;;3.20;99.90;;;;;;4963853;28;20058;-76
2022/03/19 05:52:16;;;;;;;30.55;10.55;;;3.10;99.90;;;;;;4958812;28;20513;-77
2022/03/19 05:54:43;;;;;;;31.85;10.60;;;3.10;99.90;;;;;;4957146;28;20046;-77
2022/03/19 05:57:14;;;;;;;30.23;10.10;;;3.10;99.90;;;;;;4973348;28;20098;-78
2022/03/19 05:59:40;;;;;;;31.65;10.52;;;3.10;99.90;;;;;;4972535;28;20108;-77
2022/03/19 06:02:10;;;;;;;29.42;11.77;;;3.10;99.90;;;;;;4956195;28;20121;-77
2022/03/19 06:04:36;;;;;;;31.92;10.85;;;3.10;99.90;;;;;;4953811;29;20047;-77
2022/03/19 06:07:05;;;;;;;25.15;10.50;;;3.10;99.90;;;;;;4953635;29;20513;-76
2022/03/19 06:09:31;;;;;;;21.52;10.07;;;3.10;99.90;;;;;;4953977;29;20091;-76
2022/03/19 06:11:57;;;;;;;39.72;14.27;;;3.10;99.90;;;;;;4921576;29;20158;-76
2022/03/19 06:14:32;;;;;;;28.48;11.45;;;3.20;99.90;;;;;;4953379;29;20062;-76
2022/03/19 06:16:58;;;;;;;31.58;11.95;;;3.20;99.90;;;;;;4953040;29;20051;-76
2022/03/19 06:19:29;;;;;;;30.88;13.30;;;3.20;99.90;;;;;;4937386;29;20062;-77
2022/03/19 06:21:54;;;;;;;32.47;12.40;;;3.20;99.90;;;;;;4937638;29;20491;-76
2022/03/19 06:24:23;;;;;;;31.80;11.00;;;3.30;99.90;;;;;;4920694;29;20138;-76
2022/03/19 06:26:50;;;;;;;29.40;12.27;;;3.30;99.90;;;;;;4953098;29;20047;-76
2022/03/19 06:29:16;;;;;;;25.20;11.60;;;3.40;99.90;;;;;;4937674;29;20158;-76
2022/03/19 06:31:42;;;;;;;37.90;13.27;;;3.40;99.90;;;;;;4953499;29;20051;-76
2022/03/19 06:34:13;;;;;;;31.10;12.40;;;3.50;99.90;;;;;;4937637;29;20828;-80
2022/03/19 06:39:23;;;;;;;32.05;13.00;;;3.60;99.90;;;;;;4952981;29;20051;-77
2022/03/19 06:41:48;;;;;;;32.58;13.43;;;3.70;99.90;;;;;;4953369;29;20059;-78
2022/03/19 06:44:14;;;;;;;27.52;10.82;;;3.80;99.90;;;;;;4954859;28;20051;-77
2022/03/19 06:46:40;;;;;;;24.75;10.38;;;3.80;99.90;;;;;;4967298;28;20421;-77
2022/03/19 06:49:07;;;;;;;29.83;11.32;;;3.90;99.90;;;;;;4991441;28;20064;-76
2022/03/19 06:51:40;;;;;;;26.33;10.40;;;4.00;99.90;;;;;;4963605;28;20092;-76
2022/03/19 06:54:07;;;;;;;27.42;11.38;;;4.10;99.90;;;;;;4959528;28;20054;-76
2022/03/19 06:56:38;;;;;;;24.27;10.40;;;4.10;99.90;;;;;;4958914;28;20054;-75
2022/03/19 06:59:05;;;;;;;29.38;10.85;;;4.20;99.90;;;;;;4959829;28;20042;-76
2022/03/19 07:01:36;;;;;;;36.30;12.13;;;4.30;99.90;;;;;;5005101;28;20132;-77
2022/03/19 07:04:03;;;;;;;21.83;10.82;;;4.40;99.90;;;;;;4977041;28;20054;-77
2022/03/19 07:06:30;;;;;;;23.05;10.43;;;4.50;99.90;;;;;;4978871;28;20054;-77
2022/03/19 07:08:56;;;;;;;33.67;11.90;;;4.60;99.90;;;;;;4978614;28;20053;-76
2022/03/19 07:11:23;;;;;;;24.42;9.30;;;4.70;99.90;;;;;;4994968;28;20057;-76
2022/03/19 07:13:48;;;;;;;23.10;9.98;;;4.80;99.90;;;;;;4994373;28;20046;-76
2022/03/19 07:16:24;;;;;;;24.40;8.82;;;5.00;99.90;;;;;;4995211;28;20046;-77
2022/03/19 07:18:51;;;;;;;25.42;8.85;;;5.10;99.90;;;;;;4994991;28;20422;-76
2022/03/19 07:21:21;;;;;;;20.90;8.35;;;5.20;99.90;;;;;;4978647;28;20037;-78
2022/03/19 07:23:47;;;;;;;21.67;8.18;;;5.40;99.90;;;;;;4978563;28;20076;-77
2022/03/19 07:26:12;;;;;;;19.75;7.95;;;5.50;99.90;;;;;;4994552;28;20049;-77
2022/03/19 07:28:40;;;;;;;18.95;8.38;;;5.70;99.90;;;;;;4978676;28;20133;-77
2022/03/19 07:31:06;;;;;;;19.27;7.93;;;5.80;99.90;;;;;;4978444;28;20077;-76
2022/03/19 07:33:34;;;;;;;25.23;8.27;;;6.00;99.90;;;;;;4994837;28;20046;-77
2022/03/19 07:36:04;;;;;;;20.27;8.23;;;6.10;99.90;;;;;;4978300;28;20049;-77
2022/03/19 07:38:32;;;;;;;22.35;7.00;;;6.20;99.90;;;;;;4978080;28;20049;-77
2022/03/19 07:43:47;;;;;;;22.50;7.20;;;6.50;99.90;;;;;;4980700;28;20382;-77
2022/03/19 07:46:12;;;;;;;22.70;8.00;;;6.60;99.90;;;;;;4994079;28;20062;-77
2022/03/19 07:48:38;;;;;;;17.42;6.00;;;6.70;99.90;;;;;;4979352;28;20096;-78
2022/03/19 07:51:06;;;;;;;21.63;7.40;;;6.80;99.90;;;;;;4982291;28;20398;-79
2022/03/19 07:53:32;;;;;;;23.52;6.00;;;7.00;99.90;;;;;;4967270;28;20132;-78
2022/03/19 07:55:57;;;;;;;19.27;6.40;;;7.10;99.90;;;;;;4998222;28;20053;-78
2022/03/19 07:58:24;;;;;;;17.30;6.05;;;7.20;99.90;;;;;;4998044;28;20046;-78
2022/03/19 08:00:53;;;;;;;20.85;6.03;;;7.30;99.90;;;;;;4974927;28;20051;-77
2022/03/19 08:03:19;;;;;;;12.02;5.03;;;7.40;99.90;;;;;;4978527;28;20468;-78
2022/03/19 08:05:45;;;;;;;23.48;6.43;;;7.50;99.90;;;;;;4978019;28;20050;-77
2022/03/19 08:08:19;;;;;;;18.13;5.35;;;7.60;99.90;;;;;;4995000;28;20051;-78
2022/03/19 08:10:46;;;;;;;16.60;5.28;;;7.80;99.90;;;;;;4962189;28;20054;-76
2022/03/19 08:13:31;;;;;;;20.52;5.22;;;7.90;99.90;;;;;;4995915;28;20105;-76
2022/03/19 08:15:57;;;;;;;18.65;5.45;;;8.00;99.90;;;;;;4962309;28;20104;-76
2022/03/19 08:18:33;;;;;;;16.52;4.57;;;8.10;99.90;;;;;;4965461;28;20050;-79
2022/03/19 08:21:12;;;;;;;17.42;5.43;;;8.20;99.90;;;;;;4978700;28;20438;-77
2022/03/19 08:23:41;;;;;;;22.60;5.32;;;8.30;99.90;;;;;;4978226;28;20100;-77
2022/03/19 08:26:10;;;;;;;20.02;4.93;;;8.40;99.90;;;;;;4979180;28;20046;-77
2022/03/19 08:28:35;;;;;;;17.02;4.22;;;8.50;99.90;;;;;;4977861;28;20417;-77
2022/03/19 08:31:01;;;;;;;18.65;5.03;;;8.60;99.90;;;;;;4961952;28;20054;-77
2022/03/19 08:33:27;;;;;;;17.42;4.72;;;8.70;99.90;;;;;;4978274;28;20542;-78
2022/03/19 08:36:12;;;;;;;16.98;4.75;;;8.80;99.90;;;;;;4995836;28;20425;-77
2022/03/19 08:41:22;;;;;;;15.50;3.80;;;8.90;99.90;;;;;;4977826;28;20048;-78
2022/03/19 08:43:49;;;;;;;14.52;3.75;;;9.10;99.90;;;;;;4977033;28;20417;-77
2022/03/19 08:46:15;;;;;;;17.20;3.90;;;9.10;99.90;;;;;;4961492;28;20089;-78
2022/03/19 08:48:42;;;;;;;15.23;4.05;;;9.30;99.90;;;;;;4961974;28;20058;-77
2022/03/19 08:53:58;;;;;;;18.92;3.92;;;9.50;99.90;;;;;;4966111;28;20054;-78
2022/03/19 08:56:27;;;;;;;12.00;3.35;;;9.60;99.90;;;;;;4995569;28;20516;-77
2022/03/19 08:58:54;;;;;;;13.63;4.18;;;9.70;99.90;;;;;;4962008;28;20043;-77
2022/03/19 09:01:24;;;;;;;14.00;3.47;;;9.80;99.90;;;;;;4971374;28;20136;-77
2022/03/19 09:03:51;;;;;;;14.15;3.60;;;10.00;99.90;;;;;;4965535;28;20054;-76
2022/03/19 09:06:18;;;;;;;17.33;3.75;;;10.10;99.90;;;;;;4964794;28;20053;-77
2022/03/19 09:08:49;;;;;;;16.50;3.63;;;10.20;99.90;;;;;;4996766;28;20060;-77
2022/03/19 09:11:21;;;;;;;13.55;3.47;;;10.30;99.90;;;;;;4996816;28;20088;-78
2022/03/19 09:13:51;;;;;;;15.32;4.13;;;10.40;99.90;;;;;;4981626;28;20405;-79
2022/03/19 09:16:20;;;;;;;18.08;3.40;;;10.40;99.90;;;;;;4980744;28;20053;-77
2022/03/19 09:18:46;;;;;;;14.88;3.60;;;10.50;99.90;;;;;;4980619;28;20131;-77
2022/03/19 09:21:12;;;;;;;13.07;3.50;;;10.60;99.90;;;;;;5013571;28;20054;-78
2022/03/19 09:23:42;;;;;;;19.13;3.38;;;10.80;99.90;;;;;;4997288;28;20416;-77
2022/03/19 09:26:12;;;;;;;16.88;3.97;;;10.80;99.90;;;;;;4965552;28;20124;-78
2022/03/19 09:29:03;;;;;;;12.20;3.25;;;10.90;99.90;;;;;;4980466;28;20101;-77
2022/03/19 09:31:30;;;;;;;12.70;4.20;;;11.00;99.90;;;;;;4972735;28;20089;-77
2022/03/19 09:33:57;;;;;;;27.52;15.63;;;11.00;99.90;;;;;;4956216;28;20086;-78
2022/03/19 09:36:24;;;;;;;14.88;3.80;;;11.00;99.90;;;;;;4925055;28;20137;-77
2022/03/19 09:38:54;;;;;;;14.02;2.90;;;11.20;99.70;;;;;;4969897;28;20086;-76
2022/03/19 09:41:23;;;;;;;12.32;3.22;;;11.20;99.00;;;;;;4956697;28;20058;-77
2022/03/19 09:43:49;;;;;;;13.13;2.53;;;11.20;98.40;;;;;;4957675;28;20055;-76
2022/03/19 09:46:15;;;;;;;12.68;2.70;;;11.20;98.20;;;;;;4954966;28;20094;-76
2022/03/19 09:48:46;;;;;;;12.45;3.17;;;11.40;98.20;;;;;;4957488;28;20453;-78
2022/03/19 09:51:16;;;;;;;10.90;3.08;;;11.50;97.90;;;;;;4941630;28;20105;-77
2022/03/19 09:53:43;;;;;;;15.73;3.97;;;11.80;97.30;;;;;;4940293;28;20062;-77
2022/03/19 09:56:10;;;;;;;11.10;2.65;;;11.90;97.00;;;;;;4972296;28;20525;-78
2022/03/19 09:58:35;;;;;;;11.02;2.60;;;11.90;96.10;;;;;;4939569;28;20538;-78
2022/03/19 10:01:20;;;;;;;10.15;2.47;;;12.00;95.40;;;;;;4948092;29;20067;-78
2022/03/19 10:03:49;;;;;;;9.25;2.67;;;12.30;95.00;;;;;;4950902;29;20055;-78
2022/03/19 10:09:03;;;;;;;12.00;2.60;;;12.50;94.20;;;;;;4937971;29;20491;-78
2022/03/19 10:11:31;;;;;;;7.80;2.05;;;12.60;93.80;;;;;;4953351;28;20142;-79
2022/03/19 10:13:59;;;;;;;13.27;3.75;;;12.60;93.10;;;;;;4950985;28;20078;-78
2022/03/19 10:16:30;;;;;;;11.50;2.42;;;12.80;91.30;;;;;;4921920;29;20051;-78
2022/03/19 10:19:07;;;;;;;16.33;3.60;;;12.80;92.00;;;;;;4937202;29;20753;-78
2022/03/19 10:21:40;;;;;;;8.70;3.25;;;13.10;94.00;;;;;;4921649;29;20411;-77
2022/03/19 10:24:20;;;;;;;11.18;3.22;;;13.30;95.10;;;;;;4953401;28;20478;-79
2022/03/19 10:26:48;;;;;;;10.38;3.50;;;13.60;96.60;;;;;;4953183;29;20062;-79
2022/03/19 10:29:14;;;;;;;12.48;3.80;;;13.70;96.70;;;;;;4954681;29;20392;-79
2022/03/19 10:31:46;;;;;;;16.42;4.53;;;13.90;97.10;;;;;;4953364;29;20051;-79
2022/03/19 10:34:18;;;;;;;13.02;3.95;;;14.00;96.60;;;;;;4954921;29;20130;-78
2022/03/19 10:36:45;;;;;;;15.25;4.35;;;14.10;97.30;;;;;;4937237;29;20130;-79
2022/03/19 10:39:22;;;;;;;16.08;3.83;;;14.40;97.00;;;;;;4937572;29;20351;-79
2022/03/19 10:41:49;;;;;;;18.40;4.13;;;14.70;96.50;;;;;;4941892;29;20051;-80
2022/03/19 10:44:28;;;;;;;19.42;4.35;;;14.80;96.30;;;;;;4960810;28;20051;-79
2022/03/19 10:46:55;;;;;;;15.43;4.38;;;14.80;95.00;;;;;;4946539;28;20047;-80
2022/03/19 10:49:29;;;;;;;12.48;3.85;;;14.80;95.50;;;;;;4960334;28;20038;-80
2022/03/19 10:51:57;;;;;;;17.15;3.90;;;15.10;95.10;;;;;;4959656;28;20057;-79
2022/03/19 10:54:24;;;;;;;10.95;3.53;;;15.00;94.60;;;;;;4975751;28;20050;-80
2022/03/19 10:56:51;;;;;;;14.35;3.33;;;15.00;94.60;;;;;;4959669;28;20050;-80
2022/03/19 10:59:18;;;;;;;19.00;3.65;;;15.00;94.30;;;;;;4976013;28;20552;-80
2022/03/19 11:01:49;;;;;;;12.55;3.17;;;15.30;93.50;;;;;;4989879;28;20049;-80
2022/03/19 11:04:15;;;;;;;16.65;4.75;;;15.70;94.00;;;;;;4963799;28;20528;-81
2022/03/19 11:06:46;;;;;;;13.32;3.42;;;15.90;93.40;;;;;;4995003;28;20056;-79
2022/03/19 11:09:17;;;;;;;14.23;3.35;;;16.50;92.30;;;;;;4994964;28;20046;-78
2022/03/19 11:12:10;;;;;;;9.18;2.92;;;16.50;88.50;;;;;;4978715;28;20065;-78
2022/03/19 11:14:40;;;;;;;14.10;3.30;;;16.30;85.60;;;;;;4994744;28;20054;-79
2022/03/19 11:17:32;;;;;;;16.27;3.70;;;16.10;90.70;;;;;;4994617;28;20097;-77
2022/03/19 11:20:01;;;;;;;15.05;3.05;;;16.40;84.10;;;;;;4978218;28;20534;-78
2022/03/19 11:22:40;;;;;;;15.93;3.38;;;16.30;88.80;;;;;;4978449;28;20160;-79
2022/03/19 11:25:45;;;;;;;13.95;3.35;;;16.50;82.70;;;;;;4978151;28;20060;-78
2022/03/19 11:28:11;;;;;;;15.55;4.22;;;16.60;74.20;;;;;;4978349;28;20049;-79
2022/03/19 11:30:40;;;;;;;8.60;2.72;;;16.70;83.00;;;;;;4977799;28;20061;-78
2022/03/19 11:33:06;;;;;;;9.02;2.75;;;16.70;82.30;;;;;;4978425;28;20054;-79
2022/03/19 11:35:34;;;;;;;11.10;2.97;;;17.00;81.50;;;;;;4994213;28;20181;-78
2022/03/19 11:38:11;;;;;;;12.70;3.55;;;17.00;77.40;;;;;;4994189;28;20116;-79
2022/03/19 11:40:43;;;;;;;12.68;2.85;;;17.40;77.50;;;;;;4993936;28;20493;-82
2022/03/19 11:43:09;;;;;;;10.45;2.45;;;17.40;74.70;;;;;;4977329;28;20085;-73
2022/03/19 11:46:26;;;;;;;10.93;3.10;;;17.70;74.10;;;;;;4994201;28;20046;-81
2022/03/19 11:48:59;;;;;;;13.77;2.70;;;18.00;64.60;;;;;;4993555;28;20050;-74
2022/03/19 11:51:25;;;;;;;9.75;2.70;;;18.40;66.20;;;;;;4993892;28;20112;-81
2022/03/19 11:54:19;;;;;;;11.93;2.50;;;18.80;60.20;;;;;;4994068;28;20058;-82
2022/03/19 11:56:45;;;;;;;11.40;2.53;;;19.30;60.50;;;;;;4979166;28;20057;-81
2022/03/19 11:59:16;;;;;;;16.38;2.95;;;19.90;55.00;;;;;;5012197;28;20536;-80
2022/03/19 12:01:55;;;;;;;7.07;1.65;;;19.80;54.00;;;;;;4980461;28;20050;-82
2022/03/19 12:04:27;;;;;;;5.80;1.42;;;19.70;51.50;;;;;;4972828;28;20057;-76
2022/03/19 12:06:58;;;;;;;6.10;1.67;;;20.00;51.30;;;;;;4942681;28;20055;-73
2022/03/19 12:09:50;;;;;;;8.80;2.08;;;20.40;50.30;;;;;;4959049;28;20053;-78
2022/03/19 12:12:16;;;;;;;14.80;3.25;;;21.20;51.90;;;;;;4974270;28;20513;-76
2022/03/19 12:14:45;;;;;;;14.05;3.80;;;21.50;51.80;;;;;;4972518;28;20144;-76
2022/03/19 12:17:20;;;;;;;18.33;3.63;;;21.70;51.80;;;;;;4958628;28;20058;-77
2022/03/19 12:19:59;;;;;;;19.05;3.67;;;22.20;51.70;;;;;;4980268;28;20077;-78
2022/03/19 12:22:29;;;;;;;20.60;3.78;;;22.90;51.40;;;;;;4983035;28;20190;-79
2022/03/19 12:25:32;;;;;;;15.88;3.80;;;23.70;48.40;;;;;;4975878;28;20049;-68
2022/03/19 12:27:57;;;;;;;12.75;3.33;;;23.60;47.50;;;;;;4960466;28;20050;-69
2022/03/19 12:30:25;;;;;;;11.23;2.75;;;23.90;46.20;;;;;;4976088;28;20050;-81
2022/03/19 12:33:13;;;;;;;10.80;2.72;;;24.00;46.30;;;;;;4979399;28;20042;-80
2022/03/19 12:35:43;;;;;;;13.73;3.05;;;24.50;45.50;;;;;;4994865;28;20050;-67
2022/03/19 12:38:09;;;;;;;17.10;2.88;;;24.60;44.30;;;;;;4996820;28;20050;-66
2022/03/19 12:43:42;;;;;;;10.20;3.00;;;25.40;43.10;;;;;;4963719;28;20073;-75
2022/03/19 12:46:09;;;;;;;19.05;3.10;;;25.30;42.30;;;;;;4959002;28;20145;-78
2022/03/19 12:48:39;;;;;;;14.93;3.28;;;26.10;42.70;;;;;;4990729;28;20054;-77
2022/03/19 12:51:05;;;;;;;14.88;2.92;;;26.80;41.50;;;;;;4990548;28;20054;-78
2022/03/19 12:53:37;;;;;;;16.95;3.80;;;27.10;41.10;;;;;;4957741;28;20059;-79
2022/03/19 12:56:21;;;;;;;17.00;3.45;;;27.40;40.10;;;;;;4958625;28;20047;-85
2022/03/19 12:58:49;;;;;;;10.82;3.22;;;27.40;39.30;;;;;;4976104;28;20398;-87
2022/03/19 13:01:18;;;;;;;12.45;3.17;;;27.70;39.00;;;;;;4958307;28;20089;-84
2022/03/19 13:03:44;;;;;;;16.70;3.88;;;27.90;38.10;;;;;;4957983;28;20051;-77
2022/03/19 13:06:11;;;;;;;16.50;3.20;;;28.10;37.80;;;;;;4958300;28;20087;-76
2022/03/19 13:08:49;;;;;;;13.25;3.65;;;28.00;37.60;;;;;;4975671;28;20051;-77
2022/03/19 13:11:18;;;;;;;14.50;3.90;;;28.20;37.40;;;;;;4974385;28;20050;-76
2022/03/19 13:13:47;;;;;;;13.02;3.15;;;28.40;36.60;;;;;;4957754;28;20047;-75
2022/03/19 13:16:33;;;;;;;14.55;3.70;;;28.80;36.00;;;;;;4958109;28;20062;-80
2022/03/19 13:19:08;;;;;;;17.33;3.85;;;28.80;36.40;;;;;;4975178;28;20047;-76
2022/03/19 13:21:42;;;;;;;12.38;3.35;;;28.40;35.60;;;;;;4941259;28;20410;-75
2022/03/19 13:24:28;;;;;;;13.70;2.92;;;27.90;35.40;;;;;;4975127;28;20050;-72